KINT/INT METAR and TAF weather

Enter ICAO airport designator
Station Type Date Time Source
KINT METAR 2020/03/29 14:54 UTC NOAA

KINT 291454Z 22005KT 10SM CLR 23/18 A2997 RMK AO2 SLP137 T02330178 58000


Station Type Date Time Source
KINT Decoded METAR 2020/03/29 14:54 UTC NOAA

WINSTON SALEM SMITH REYNOLDS, NC, United States (KINT) 36-08N 80-14W 291M
Mar 29, 2020 - 10:54 AM EDT / 2020.03.29 1454 UTC
Wind: from the SW (220 degrees) at 6 MPH (5 KT):0
Visibility: 10 mile(s):0
Sky conditions: clear
Temperature: 73.9 F (23.3 C)
Dew Point: 64.0 F (17.8 C)
Relative Humidity: 71%
Pressure (altimeter): 29.97 in. Hg (1014 hPa)
Pressure tendency: 0.00 inches (0.0 hPa) lower than three hours ago
ob: KINT 291454Z 22005KT 10SM CLR 23/18 A2997 RMK AO2 SLP137 T02330178 58000
cycle: 15

Station Type Date Time Source
KINT TAF 2020/03/29 12:22 UTC NOAA

TAF KINT 291120Z 2912/3012 19005KT P6SM BKN250
FM291400 23013G24KT P6SM SCT040 BKN180
FM291900 25013G24KT P6SM VCTS SCT020 SCT050CB BKN150
FM292100 27012G22KT P6SM FEW060 BKN200
FM300000 29008KT P6SM SCT200

Example: see airport list